Time;durP1;ratioP1;P1;durP2;ratioP2;P2;SDS_P1;SDS_P2;PMS_P1;PMS_P2;Temp;Humidity;BMP_temperature;BMP_pressure;BME280_temperature;BME280_humidity;BME280_pressure;Samples;Min_cycle;Max_cycle;Signal;HPM_P1;HPM_P2
2023/12/25 00:00:04;;;;;;;14.17;8.87;;;;;;;-144.30;67.92;86215.56;5112078;28;20290;-61
2023/12/25 00:02:32;;;;;;;10.43;7.43;;;;;;;-144.30;68.73;86197.66;5111484;28;20203;-55
2023/12/25 00:04:59;;;;;;;12.23;8.20;;;;;;;-144.30;68.62;86261.28;5111164;28;20191;-55
2023/12/25 00:07:26;;;;;;;13.40;8.87;;;;;;;-144.30;68.64;86213.56;5111310;28;20604;-60
2023/12/25 00:09:52;;;;;;;12.03;8.27;;;;;;;-144.30;68.71;86279.19;5111495;28;20583;-61
2023/12/25 00:12:20;;;;;;;15.53;8.90;;;;;;;-144.30;68.67;86227.50;5111533;28;20201;-55
2023/12/25 00:14:47;;;;;;;13.90;8.10;;;;;;;-144.30;69.19;86283.16;5111006;28;20220;-56
2023/12/25 00:17:16;;;;;;;14.57;9.47;;;;;;;-144.30;69.47;86259.31;5111487;28;20202;-61
2023/12/25 00:19:43;;;;;;;11.47;8.03;;;;;;;-144.30;69.44;86225.50;5111753;28;20242;-60
2023/12/25 00:22:09;;;;;;;15.73;8.67;;;;;;;-144.30;69.71;86227.50;5111418;28;20202;-61
2023/12/25 00:24:36;;;;;;;13.87;9.17;;;;;;;-144.30;69.68;86241.41;5111455;28;20197;-61
2023/12/25 00:27:04;;;;;;;21.27;12.07;;;;;;;-144.30;70.04;86275.22;5111431;28;20205;-60
2023/12/25 00:29:31;;;;;;;28.10;14.50;;;;;;;-144.30;70.72;86305.03;5111322;28;20634;-60
2023/12/25 00:31:57;;;;;;;25.67;15.33;;;;;;;-144.30;71.45;86279.19;5111271;28;20195;-56
2023/12/25 00:34:26;;;;;;;29.23;16.20;;;;;;;-144.30;71.99;86307.03;5110466;28;20566;-55
2023/12/25 00:36:53;;;;;;;31.83;16.57;;;;;;;-144.30;72.37;86283.16;5110776;28;20684;-56
2023/12/25 00:39:19;;;;;;;32.37;16.90;;;;;;;-144.30;73.17;86332.88;5110546;28;20197;-54
2023/12/25 00:41:46;;;;;;;24.83;16.37;;;;;;;-144.30;73.21;86309.03;5110299;28;20986;-55
2023/12/25 00:44:13;;;;;;;25.53;16.10;;;;;;;-144.30;73.76;86314.97;5110314;28;20191;-55
2023/12/25 00:46:40;;;;;;;30.17;16.53;;;;;;;-144.30;73.73;86314.97;5110396;28;20204;-54
2023/12/25 00:49:07;;;;;;;33.70;16.87;;;;;;;-144.30;74.61;86320.94;5110716;27;20270;-61
2023/12/25 00:51:36;;;;;;;37.47;18.13;;;;;;;-144.30;74.65;86311.00;5111134;28;20608;-60
2023/12/25 00:54:02;;;;;;;27.00;16.03;;;;;;;-144.30;75.31;86362.72;5110347;28;20286;-55
2023/12/25 00:56:29;;;;;;;30.27;16.03;;;;;;;-144.30;75.84;86328.91;5110585;28;20198;-60
2023/12/25 00:58:56;;;;;;;28.03;15.10;;;;;;;-144.30;75.76;86334.88;5111015;28;20237;-54
2023/12/25 01:01:23;;;;;;;25.03;14.67;;;;;;;-144.30;75.69;86354.75;5110723;28;20205;-61
2023/12/25 01:03:50;;;;;;;24.67;13.87;;;;;;;-144.30;75.60;86342.81;5110726;28;20701;-53
2023/12/25 01:06:17;;;;;;;21.13;12.10;;;;;;;-144.30;75.20;86348.78;5109952;28;20769;-57
2023/12/25 01:08:45;;;;;;;17.43;11.13;;;;;;;-144.30;74.64;86318.97;5110490;28;20198;-61
2023/12/25 01:11:12;;;;;;;20.77;11.57;;;;;;;-144.30;74.21;86358.72;5110450;28;20197;-55
2023/12/25 01:13:39;;;;;;;19.60;11.77;;;;;;;-144.30;74.48;86326.91;5110183;28;20661;-54
2023/12/25 01:16:06;;;;;;;22.33;13.10;;;;;;;-144.30;74.50;86358.72;5110125;28;20229;-55
2023/12/25 01:18:33;;;;;;;22.50;12.40;;;;;;;-144.30;74.55;86348.78;5109741;28;20199;-55
2023/12/25 01:21:02;;;;;;;20.47;11.73;;;;;;;-144.30;74.54;86297.09;5109900;28;20198;-54
2023/12/25 01:23:29;;;;;;;24.07;11.87;;;;;;;-144.30;74.23;86344.81;5109873;28;20742;-55
2023/12/25 01:25:57;;;;;;;18.33;11.33;;;;;;;-144.30;74.70;86320.94;5110263;28;20662;-55
2023/12/25 01:28:24;;;;;;;14.63;9.53;;;;;;;-144.30;74.85;86326.91;5109766;28;20200;-55
2023/12/25 01:30:50;;;;;;;16.03;9.43;;;;;;;-144.30;74.22;86334.88;5110021;28;20194;-55
2023/12/25 01:33:17;;;;;;;12.40;9.60;;;;;;;-144.30;74.66;86358.72;5109447;28;20194;-55
2023/12/25 01:35:44;;;;;;;13.83;9.17;;;;;;;-144.30;74.13;86332.88;5109987;28;20253;-60
2023/12/25 01:38:11;;;;;;;14.13;8.40;;;;;;;-144.30;73.90;86305.03;5109974;28;20186;-59
2023/12/25 01:40:39;;;;;;;13.90;8.23;;;;;;;-144.30;73.72;86344.81;5110338;28;20198;-61
2023/12/25 01:43:07;;;;;;;13.23;8.20;;;;;;;-144.30;73.35;86322.94;5110190;28;20270;-61
2023/12/25 01:45:34;;;;;;;11.57;7.50;;;;;;;-144.30;72.51;86285.16;5110152;28;20197;-61
2023/12/25 01:48:01;;;;;;;13.47;7.20;;;;;;;-144.30;72.67;86326.91;5110438;28;20662;-56
2023/12/25 01:50:29;;;;;;;13.40;7.67;;;;;;;-144.30;72.17;86358.72;5109526;28;20196;-56
2023/12/25 01:52:55;;;;;;;12.53;7.77;;;;;;;-144.30;72.59;86354.75;5109886;28;20603;-55
2023/12/25 01:55:22;;;;;;;12.07;8.30;;;;;;;-144.30;72.19;86336.84;5109359;28;20224;-54
2023/12/25 01:57:48;;;;;;;18.37;8.97;;;;;;;-144.30;72.07;86311.00;5109483;28;20591;-54
2023/12/25 02:00:17;;;;;;;12.33;7.97;;;;;;;-144.30;71.93;86279.19;5109349;28;20195;-54
2023/12/25 02:02:44;;;;;;;14.00;7.63;;;;;;;-144.30;71.47;86299.06;5109251;28;20201;-55
2023/12/25 02:05:11;;;;;;;10.83;7.80;;;;;;;-144.30;71.52;86362.72;5109315;28;20369;-54
2023/12/25 02:07:39;;;;;;;13.60;8.13;;;;;;;-144.30;71.25;86293.09;5109666;28;20565;-55
2023/12/25 02:10:07;;;;;;;13.33;8.10;;;;;;;-144.30;71.63;86303.06;5109504;28;20256;-54
2023/12/25 02:12:34;;;;;;;13.73;9.07;;;;;;;-144.30;72.28;86301.06;5109225;28;20206;-55
2023/12/25 02:15:01;;;;;;;21.80;11.20;;;;;;;-144.30;73.32;86336.84;5109432;28;20309;-55
2023/12/25 02:17:31;;;;;;;27.30;13.93;;;;;;;-144.30;74.14;86330.88;5111869;28;20230;-54
2023/12/25 02:19:58;;;;;;;24.80;16.20;;;;;;;-144.30;74.74;86334.88;5113504;28;20195;-54
2023/12/25 02:22:25;;;;;;;27.53;16.00;;;;;;;-144.30;74.45;86370.66;5113220;28;20670;-54
2023/12/25 02:24:57;;;;;;;25.43;14.83;;;;;;;-144.30;74.90;86346.81;5113271;28;20600;-60
2023/12/25 02:27:25;;;;;;;25.87;14.27;;;;;;;-144.30;75.33;86318.97;5113799;28;20692;-55
2023/12/25 02:29:52;;;;;;;27.10;14.97;;;;;;;-144.30;75.61;86364.69;5114136;28;20662;-61
2023/12/25 02:32:19;;;;;;;26.17;14.70;;;;;;;-144.30;76.39;86366.69;5113751;28;20200;-61
2023/12/25 02:34:47;;;;;;;28.20;15.30;;;;;;;-144.30;76.78;86364.69;5112979;28;20221;-56
2023/12/25 02:37:14;;;;;;;24.37;14.57;;;;;;;-144.30;77.10;86350.78;5112904;28;20272;-54
2023/12/25 02:39:41;;;;;;;26.90;14.83;;;;;;;-144.30;77.10;86410.44;5113758;28;20565;-61
2023/12/25 02:42:08;;;;;;;27.57;14.43;;;;;;;-144.30;76.37;86370.66;5113481;28;20690;-61
2023/12/25 02:44:36;;;;;;;28.30;15.30;;;;;;;-144.30;77.26;86374.63;5113633;28;20216;-61
2023/12/25 02:47:03;;;;;;;28.73;15.47;;;;;;;-144.30;77.30;86666.97;5112965;28;20202;-55
2023/12/25 02:49:30;;;;;;;27.73;15.77;;;;;;;-144.30;78.25;86388.56;5112719;28;20205;-55
2023/12/25 02:51:57;;;;;;;29.17;16.93;;;;;;;-144.30;78.12;86396.50;5113279;28;20205;-61
2023/12/25 02:54:24;;;;;;;28.17;16.30;;;;;;;-144.30;77.85;86388.56;5113335;28;20582;-61
2023/12/25 02:56:50;;;;;;;26.40;16.60;;;;;;;-144.30;78.47;86388.56;5113663;28;20198;-61
2023/12/25 02:59:17;;;;;;;29.33;15.87;;;;;;;-144.30;78.93;86378.63;5113063;28;20224;-62
2023/12/25 03:01:46;;;;;;;28.90;16.67;;;;;;;-144.30;79.66;86392.53;5113577;28;20214;-61
2023/12/25 03:04:12;;;;;;;33.47;17.30;;;;;;;-144.30;80.05;86430.31;5113340;28;20679;-61
2023/12/25 03:06:39;;;;;;;29.50;17.43;;;;;;;-144.30;79.29;86386.56;5112897;28;20200;-60
2023/12/25 03:09:06;;;;;;;34.63;16.60;;;;;;;-144.30;79.63;86398.50;5113289;28;20666;-61
2023/12/25 03:11:33;;;;;;;28.03;17.43;;;;;;;-144.30;79.27;86414.41;5113135;28;20281;-61
2023/12/25 03:14:01;;;;;;;32.60;17.37;;;;;;;-144.30;79.29;86394.53;5113125;28;20191;-55
2023/12/25 03:16:28;;;;;;;28.93;17.10;;;;;;;-144.30;79.53;86382.59;5111827;28;20713;-55
2023/12/25 03:18:55;;;;;;;28.73;17.43;;;;;;;-144.30;79.55;86408.44;5112398;28;20201;-54
2023/12/25 03:21:22;;;;;;;29.90;17.37;;;;;;;-144.30;79.00;86390.53;5111993;28;20250;-55
2023/12/25 03:23:49;;;;;;;31.63;16.67;;;;;;;-144.30;79.50;86406.44;5112572;28;20201;-61
2023/12/25 03:26:16;;;;;;;28.63;15.30;;;;;;;-144.30;79.49;86390.53;5112539;28;20193;-60
2023/12/25 03:28:42;;;;;;;25.30;14.70;;;;;;;-144.30;79.38;86416.41;5112489;28;20194;-61
2023/12/25 03:31:10;;;;;;;27.33;15.37;;;;;;;-144.30;79.71;86396.50;5112421;28;20195;-61
2023/12/25 03:33:37;;;;;;;27.93;13.87;;;;;;;-144.30;79.40;86402.47;5112340;28;20191;-55
2023/12/25 03:36:06;;;;;;;24.23;13.80;;;;;;;-144.30;79.48;86442.25;5112561;28;20684;-55
2023/12/25 03:38:33;;;;;;;23.90;12.57;;;;;;;-144.30;79.41;86402.47;5112026;28;20201;-60
2023/12/25 03:41:00;;;;;;;23.87;12.33;;;;;;;-144.30;79.41;86430.31;5112656;28;20206;-55
2023/12/25 03:43:27;;;;;;;21.50;12.03;;;;;;;-144.30;78.70;86406.44;5111613;28;20198;-60
2023/12/25 03:45:54;;;;;;;18.60;12.03;;;;;;;-144.30;78.90;86418.38;5112174;28;20190;-55
2023/12/25 03:48:21;;;;;;;15.93;11.13;;;;;;;-144.30;79.35;86768.38;5111679;28;20674;-61
2023/12/25 03:50:48;;;;;;;18.80;10.77;;;;;;;-144.30;78.89;86406.44;5112240;28;20202;-61
2023/12/25 03:53:16;;;;;;;14.50;9.33;;;;;;;-144.30;78.38;86418.38;5111908;28;20190;-62
2023/12/25 03:55:43;;;;;;;11.93;8.77;;;;;;;-144.30;78.27;86382.59;5112239;28;20218;-55
2023/12/25 03:58:10;;;;;;;14.30;8.60;;;;;;;-144.30;77.71;86370.66;5111630;28;20290;-60
2023/12/25 04:00:37;;;;;;;13.13;8.63;;;;;;;-144.30;77.34;86414.41;5112303;28;20199;-61
2023/12/25 04:03:04;;;;;;;11.90;8.13;;;;;;;-144.30;76.78;86394.53;5112318;28;20222;-61
2023/12/25 04:05:31;;;;;;;10.37;7.27;;;;;;;-144.30;76.68;86392.53;5112047;28;20602;-61
2023/12/25 04:07:58;;;;;;;12.93;7.40;;;;;;;-144.30;77.22;86362.72;5111729;28;20203;-61
2023/12/25 04:10:26;;;;;;;7.17;6.23;;;;;;;-144.30;75.83;86392.53;5111881;28;20249;-61
2023/12/25 04:12:53;;;;;;;10.87;7.00;;;;;;;-144.30;75.48;86394.53;5111698;28;20198;-61
2023/12/25 04:15:20;;;;;;;11.90;6.47;;;;;;;-144.30;75.41;86342.81;5110895;28;20210;-55
2023/12/25 04:17:47;;;;;;;13.20;7.50;;;;;;;-144.30;74.79;86406.44;5111075;28;20642;-54
2023/12/25 04:20:14;;;;;;;10.37;6.20;;;;;;;-144.30;74.59;86293.09;5111140;28;20198;-54
2023/12/25 04:22:41;;;;;;;8.70;6.33;;;;;;;-144.30;74.76;86346.81;5111743;28;20205;-61
2023/12/25 04:25:08;;;;;;;10.47;6.07;;;;;;;-144.30;74.74;86384.59;5111827;28;20194;-55
2023/12/25 04:27:36;;;;;;;12.20;6.37;;;;;;;-144.30;74.23;86386.56;5110650;28;20191;-54
2023/12/25 04:30:04;;;;;;;11.37;6.70;;;;;;;-144.30;74.09;86378.63;5110825;28;20191;-54
2023/12/25 04:32:30;;;;;;;8.90;6.87;;;;;;;-144.30;74.53;86336.84;5110592;28;20198;-54
2023/12/25 04:34:57;;;;;;;6.83;6.03;;;;;;;-144.30;74.43;86382.59;5110546;28;20201;-54
2023/12/25 04:37:24;;;;;;;11.70;6.60;;;;;;;-144.30;73.73;86370.66;5110342;28;20194;-55
2023/12/25 04:39:52;;;;;;;14.40;8.20;;;;;;;-144.30;73.72;86366.69;5110604;28;20194;-61
2023/12/25 04:42:19;;;;;;;22.70;12.97;;;;;;;-144.30;73.57;86364.69;5110719;28;20230;-61
2023/12/25 04:44:47;;;;;;;33.47;16.67;;;;;;;-144.30;73.63;86366.69;5111188;28;20198;-61
2023/12/25 04:47:14;;;;;;;22.23;12.17;;;;;;;-144.30;73.65;86364.69;5111605;28;20542;-61
2023/12/25 04:49:41;;;;;;;16.73;9.77;;;;;;;-144.30;73.75;86354.75;5111574;28;20218;-61
2023/12/25 04:52:08;;;;;;;11.20;7.93;;;;;;;-144.30;74.31;86418.38;5111088;28;20283;-61
2023/12/25 04:54:35;;;;;;;13.07;7.37;;;;;;;-144.30;73.71;86378.63;5110857;28;20190;-61
2023/12/25 04:57:02;;;;;;;10.20;6.33;;;;;;;-144.30;73.34;86372.66;5111169;28;20222;-62
2023/12/25 04:59:29;;;;;;;7.87;5.73;;;;;;;-144.30;74.17;86328.91;5110879;28;20205;-60
2023/12/25 05:01:59;;;;;;;8.90;6.23;;;;;;;-144.30;73.91;86406.44;5110414;28;20205;-55
2023/12/25 05:04:25;;;;;;;7.47;6.03;;;;;;;-144.30;73.92;86422.38;5110095;28;20198;-60
2023/12/25 05:06:52;;;;;;;14.23;6.17;;;;;;;-144.30;73.82;86366.69;5110737;28;20187;-60
2023/12/25 05:09:20;;;;;;;9.17;6.27;;;;;;;-144.30;73.80;86352.75;5110290;28;20214;-54
2023/12/25 05:11:46;;;;;;;10.10;6.60;;;;;;;-144.30;73.24;86370.66;5110257;28;20207;-60
2023/12/25 05:14:13;;;;;;;10.07;6.97;;;;;;;-144.30;73.98;86231.47;5110283;28;20213;-55
2023/12/25 05:16:40;;;;;;;11.60;6.83;;;;;;;-144.30;74.10;86368.66;5110067;28;20229;-55
2023/12/25 05:19:10;;;;;;;11.67;7.87;;;;;;;-144.30;74.46;86386.56;5110048;28;20198;-55
2023/12/25 05:21:37;;;;;;;11.33;6.40;;;;;;;-144.30;75.06;86382.59;5109838;28;20254;-54
2023/12/25 05:24:04;;;;;;;9.83;5.83;;;;;;;-144.30;74.73;86396.50;5110493;28;20198;-61
2023/12/25 05:26:31;;;;;;;7.87;5.50;;;;;;;-144.30;74.50;86394.53;5110571;28;20745;-61
2023/12/25 05:28:58;;;;;;;8.07;5.30;;;;;;;-144.30;74.12;86368.66;5110499;28;20230;-60
2023/12/25 05:31:25;;;;;;;7.70;5.50;;;;;;;-144.30;74.19;86384.59;5110462;28;20198;-61
2023/12/25 05:33:51;;;;;;;6.53;5.07;;;;;;;-144.30;74.05;86384.59;5111007;28;20551;-61
2023/12/25 05:36:20;;;;;;;12.23;8.10;;;;;;;-144.30;73.37;86378.63;5106787;28;20612;-61
2023/12/25 05:38:47;;;;;;;13.33;8.37;;;;;;;-144.30;72.81;86352.75;5110405;28;20616;-55
2023/12/25 05:41:13;;;;;;;14.80;7.33;;;;;;;-144.30;73.20;86386.56;5109942;28;20261;-62
2023/12/25 05:43:42;;;;;;;9.17;6.10;;;;;;;-144.30;74.24;86366.69;5110193;28;20194;-61
2023/12/25 05:46:08;;;;;;;12.37;6.10;;;;;;;-144.30;73.94;86378.63;5112752;28;20237;-56
2023/12/25 05:48:35;;;;;;;9.93;6.03;;;;;;;-144.30;74.55;86344.81;5108600;28;20194;-61
2023/12/25 05:51:02;;;;;;;10.57;5.33;;;;;;;-144.30;74.73;86402.47;5110459;28;20199;-61
2023/12/25 05:53:31;;;;;;;6.93;5.50;;;;;;;-144.30;74.60;86366.69;5114576;28;20194;-61
2023/12/25 05:55:58;;;;;;;5.67;5.00;;;;;;;-144.30;76.14;86366.69;5114115;28;20222;-54
2023/12/25 05:58:25;;;;;;;8.07;6.20;;;;;;;-144.30;75.45;86348.78;5113750;28;20198;-59
2023/12/25 06:00:52;;;;;;;12.33;5.90;;;;;;;-144.30;74.78;86406.44;5113823;28;20190;-59
2023/12/25 06:03:18;;;;;;;10.67;6.10;;;;;;;-144.30;75.33;86362.72;5114229;28;20289;-55
2023/12/25 06:05:45;;;;;;;10.23;6.20;;;;;;;-144.30;75.21;86386.56;5113473;28;20678;-55
2023/12/25 06:08:12;;;;;;;13.83;7.00;;;;;;;-144.30;74.98;86350.78;5113599;28;20220;-59
2023/12/25 06:10:40;;;;;;;11.43;6.87;;;;;;;-144.30;75.27;86328.91;5113929;28;20592;-55
2023/12/25 06:13:07;;;;;;;13.27;7.20;;;;;;;-144.30;75.28;86358.72;5113594;28;20234;-55
2023/12/25 06:15:34;;;;;;;14.40;7.50;;;;;;;-144.30;75.71;86436.28;5113259;28;20201;-54
2023/12/25 06:18:01;;;;;;;9.70;5.97;;;;;;;-144.30;75.11;86346.81;5113488;28;20195;-54
2023/12/25 06:20:28;;;;;;;12.57;7.20;;;;;;;-144.30;75.09;86352.75;5113336;28;20194;-56
2023/12/25 06:22:55;;;;;;;13.27;6.97;;;;;;;-144.30;74.78;86362.72;5109021;28;20202;-61
2023/12/25 06:25:22;;;;;;;9.57;6.20;;;;;;;-144.30;73.90;86378.63;5113292;28;20194;-60
2023/12/25 06:27:50;;;;;;;8.53;6.53;;;;;;;-144.30;73.80;86362.72;5112846;28;20193;-60
2023/12/25 06:30:18;;;;;;;10.80;6.50;;;;;;;-144.30;73.68;86390.53;5112780;28;20198;-54
2023/12/25 06:32:45;;;;;;;10.30;6.00;;;;;;;-144.30;73.53;86366.69;5113940;27;20199;-59
2023/12/25 06:35:12;;;;;;;12.20;6.43;;;;;;;-144.30;73.05;86346.81;5112998;28;20209;-54
2023/12/25 06:37:38;;;;;;;12.73;6.90;;;;;;;-144.30;73.09;86326.91;5111808;28;20211;-60
2023/12/25 06:40:06;;;;;;;8.40;6.50;;;;;;;-144.30;72.32;86364.69;5113180;28;20195;-55
2023/12/25 06:42:33;;;;;;;9.77;6.67;;;;;;;-144.30;72.13;86311.00;5113455;28;20230;-60
2023/12/25 06:45:01;;;;;;;11.23;6.80;;;;;;;-144.30;72.10;86322.94;5113363;28;20229;-60
2023/12/25 06:47:28;;;;;;;12.73;7.07;;;;;;;-144.30;71.91;86336.84;5112315;28;20226;-56
2023/12/25 06:49:55;;;;;;;12.43;7.63;;;;;;;-144.30;72.00;86311.00;5112456;28;20198;-60
2023/12/25 06:52:22;;;;;;;11.83;7.03;;;;;;;-144.30;71.23;86318.97;5112245;28;20237;-59
2023/12/25 06:54:49;;;;;;;8.63;6.33;;;;;;;-144.30;71.36;86326.91;5111520;28;20194;-54
2023/12/25 06:57:16;;;;;;;12.90;7.90;;;;;;;-144.30;71.38;86358.72;5111483;28;20246;-56
2023/12/25 06:59:44;;;;;;;9.33;7.00;;;;;;;-144.30;71.72;86358.72;5111070;28;20195;-55
2023/12/25 07:02:12;;;;;;;12.90;7.30;;;;;;;-144.30;72.13;86356.75;5111928;28;20190;-59
2023/12/25 07:05:00;;;;;;;7.90;6.50;;;;;;;-144.30;71.55;86334.88;5112089;28;20645;-54
2023/12/25 07:07:28;;;;;;;11.10;6.80;;;;;;;-144.30;71.18;86311.00;5112529;28;20272;-60
2023/12/25 07:09:55;;;;;;;11.20;7.10;;;;;;;-144.30;70.81;86338.84;5113081;28;20199;-59
2023/12/25 07:12:23;;;;;;;7.63;6.27;;;;;;;-144.30;71.09;86271.25;5113039;28;20202;-59
2023/12/25 07:14:50;;;;;;;8.73;6.07;;;;;;;-144.30;70.46;86340.84;5112937;28;20735;-55
2023/12/25 07:17:19;;;;;;;10.10;6.90;;;;;;;-144.30;70.15;86316.97;5112789;28;20329;-59
2023/12/25 07:19:46;;;;;;;7.93;6.00;;;;;;;-144.30;69.72;86293.09;5112255;28;20230;-54
2023/12/25 07:22:12;;;;;;;8.13;6.07;;;;;;;-144.30;69.83;86318.97;5109533;28;20205;-59
2023/12/25 07:24:39;;;;;;;7.00;5.13;;;;;;;-144.30;69.33;86259.31;5112571;28;20203;-59
2023/12/25 07:27:06;;;;;;;8.50;5.47;;;;;;;-144.30;69.20;86239.44;5112609;28;20218;-60
2023/12/25 07:29:33;;;;;;;7.63;5.17;;;;;;;-144.30;69.25;86235.44;5112110;28;20204;-54
2023/12/25 07:32:00;;;;;;;8.60;5.47;;;;;;;-144.30;69.09;86253.34;5111809;28;20195;-54
2023/12/25 07:34:29;;;;;;;11.80;4.93;;;;;;;-144.30;68.57;86273.22;5112193;28;20201;-60
2023/12/25 07:36:55;;;;;;;6.80;4.50;;;;;;;-144.30;68.80;86257.31;5111841;28;20222;-53
2023/12/25 07:39:22;;;;;;;7.03;4.73;;;;;;;-144.30;68.15;86249.38;5111083;28;20202;-54
2023/12/25 07:41:49;;;;;;;5.60;4.10;;;;;;;-144.30;68.34;86251.34;5112021;28;20372;-55
2023/12/25 07:44:16;;;;;;;7.10;4.20;;;;;;;-144.30;67.90;86233.47;5111449;28;20201;-59
2023/12/25 07:46:43;;;;;;;5.90;4.23;;;;;;;-144.30;68.21;86231.47;5111716;28;20197;-60
2023/12/25 07:49:11;;;;;;;8.50;4.40;;;;;;;-144.30;67.36;86177.78;5111385;28;20213;-60
2023/12/25 07:51:39;;;;;;;9.37;4.47;;;;;;;-144.30;67.63;86072.41;5111101;28;20264;-60
2023/12/25 07:54:06;;;;;;;9.17;5.30;;;;;;;-144.30;66.66;86140.00;5111518;28;20191;-60
2023/12/25 07:56:33;;;;;;;7.93;4.90;;;;;;;-144.30;66.05;86169.81;5111670;28;20210;-60
2023/12/25 07:59:00;;;;;;;10.10;5.67;;;;;;;-144.30;65.94;86155.91;5110207;28;20191;-55
2023/12/25 08:01:27;;;;;;;10.63;5.97;;;;;;;-144.30;66.03;86153.91;5110115;28;20273;-53
2023/12/25 08:03:53;;;;;;;7.30;5.23;;;;;;;-144.30;65.35;86142.00;5111028;28;20599;-54
2023/12/25 08:06:20;;;;;;;8.47;5.07;;;;;;;-144.30;64.72;86132.06;5109519;28;20214;-54
2023/12/25 08:08:48;;;;;;;9.30;5.83;;;;;;;-144.30;64.78;86134.03;5110754;28;20191;-55
2023/12/25 08:11:16;;;;;;;9.07;5.80;;;;;;;-144.30;64.62;86138.00;5110806;28;20715;-61
2023/12/25 08:13:43;;;;;;;8.47;5.00;;;;;;;-144.30;63.63;86126.09;5108580;28;20255;-60
2023/12/25 08:16:10;;;;;;;7.90;5.40;;;;;;;-144.30;63.75;86128.06;5111094;28;20202;-60
2023/12/25 08:18:37;;;;;;;9.77;5.13;;;;;;;-144.30;62.63;86120.13;5111462;28;20536;-60
2023/12/25 08:21:05;;;;;;;10.50;5.80;;;;;;;-144.30;61.97;86104.22;5111425;28;20191;-61
2023/12/25 08:23:31;;;;;;;6.27;4.90;;;;;;;-144.30;61.54;86044.56;5111326;28;20202;-54
2023/12/25 08:26:01;;;;;;;4.67;4.27;;;;;;;-144.30;61.38;86044.56;5110888;28;20271;-55
2023/12/25 08:28:28;;;;;;;5.97;4.50;;;;;;;-144.30;60.75;86090.28;5110639;28;20183;-55
2023/12/25 08:30:54;;;;;;;6.33;4.27;;;;;;;-144.30;60.48;86024.69;5106188;28;20203;-53
2023/12/25 08:33:21;;;;;;;9.33;5.10;;;;;;;-144.30;60.14;86233.47;5110431;28;20194;-55
2023/12/25 08:35:50;;;;;;;10.43;4.80;;;;;;;-144.30;58.82;86002.81;5110723;28;20637;-54
2023/12/25 08:38:17;;;;;;;5.50;4.73;;;;;;;-144.30;58.03;85969.00;5110345;28;20218;-54
2023/12/25 08:40:44;;;;;;;11.17;5.73;;;;;;;-144.30;58.04;85965.03;5110411;27;20213;-55
2023/12/25 08:43:12;;;;;;;15.60;7.97;;;;;;;-144.30;57.61;85943.16;5109982;28;20198;-55
2023/12/25 08:45:39;;;;;;;12.07;7.93;;;;;;;-144.30;57.16;85935.22;5109710;28;20217;-60
2023/12/25 08:48:06;;;;;;;8.47;5.17;;;;;;;-144.30;56.70;85937.19;5109783;28;20197;-54
2023/12/25 08:50:33;;;;;;;8.63;4.93;;;;;;;-144.30;56.66;85961.06;5108497;28;20705;-56
2023/12/25 08:53:00;;;;;;;8.73;5.50;;;;;;;-144.30;58.01;85937.19;5110306;28;20216;-54
2023/12/25 08:55:27;;;;;;;11.87;5.77;;;;;;;-144.30;57.55;85965.03;5109814;28;20194;-59
2023/12/25 08:57:54;;;;;;;12.67;7.03;;;;;;;-144.30;57.30;85887.50;5110084;28;20218;-59
2023/12/25 09:00:22;;;;;;;12.60;7.70;;;;;;;-144.30;58.90;85879.53;5109919;28;20210;-60
2023/12/25 09:02:49;;;;;;;13.63;6.33;;;;;;;-144.30;59.04;85857.66;5109805;28;20194;-60
2023/12/25 09:05:16;;;;;;;12.43;6.20;;;;;;;-144.30;58.08;85843.75;5110035;28;20194;-60
2023/12/25 09:07:43;;;;;;;6.03;3.87;;;;;;;-144.30;55.13;85813.94;5109784;28;20200;-53
2023/12/25 09:10:10;;;;;;;13.87;6.57;;;;;;;-144.30;54.43;85841.75;5109766;28;20195;-53
2023/12/25 09:12:38;;;;;;;8.77;5.80;;;;;;;-144.30;54.12;85796.03;5109596;28;20285;-54
2023/12/25 09:15:06;;;;;;;14.03;5.70;;;;;;;-144.30;52.51;85794.03;5109630;28;20202;-54
2023/12/25 09:17:35;;;;;;;7.93;5.63;;;;;;;-144.30;52.26;85746.31;5109385;28;20233;-53
2023/12/25 09:20:02;;;;;;;8.20;6.70;;;;;;;-144.30;52.10;85770.19;5109644;28;20248;-54
2023/12/25 09:22:29;;;;;;;14.47;4.50;;;;;;;-144.30;52.57;85740.38;5109653;28;20289;-54
2023/12/25 09:24:56;;;;;;;5.60;3.90;;;;;;;-144.30;52.63;85738.38;5109748;28;20209;-53
2023/12/25 09:27:23;;;;;;;10.17;3.47;;;;;;;-144.30;51.40;85730.41;5109654;28;20205;-59
2023/12/25 09:29:50;;;;;;;8.20;3.83;;;;;;;-144.30;52.36;85740.38;5110428;28;20723;-59
2023/12/25 09:32:17;;;;;;;10.90;5.50;;;;;;;-144.30;52.23;85742.34;5109793;28;20194;-53
2023/12/25 09:34:45;;;;;;;9.50;4.67;;;;;;;-144.30;51.98;85694.63;5109456;28;20190;-55
2023/12/25 09:37:12;;;;;;;11.60;5.17;;;;;;;-144.30;52.19;85678.72;5109411;28;20218;-53
2023/12/25 09:39:39;;;;;;;15.80;5.47;;;;;;;-144.30;51.28;85682.72;5109818;28;20301;-59
2023/12/25 09:42:07;;;;;;;6.27;4.00;;;;;;;-144.30;49.38;85662.81;5109658;28;20737;-54
2023/12/25 09:44:35;;;;;;;6.30;4.00;;;;;;;-144.30;49.95;85680.72;5109449;28;20301;-55
2023/12/25 09:47:03;;;;;;;6.30;3.47;;;;;;;-144.30;49.41;85650.91;5109385;28;20193;-53
2023/12/25 09:49:31;;;;;;;4.57;2.87;;;;;;;-144.30;49.75;85613.13;5109388;28;20187;-53
2023/12/25 09:51:59;;;;;;;7.73;3.80;;;;;;;-144.30;47.60;85660.84;5109494;28;20212;-54
2023/12/25 09:54:26;;;;;;;8.73;3.63;;;;;;;-144.30;46.96;85623.06;5109030;28;20201;-54
2023/12/25 09:56:56;;;;;;;6.10;2.83;;;;;;;-144.30;47.21;85599.22;5109863;28;20195;-59
2023/12/25 09:59:23;;;;;;;6.13;2.50;;;;;;;-144.30;47.45;85603.19;5109406;28;20205;-59
2023/12/25 10:01:51;;;;;;;6.23;2.70;;;;;;;-144.30;45.75;85591.25;5109568;28;20195;-59
2023/12/25 10:04:18;;;;;;;9.60;2.87;;;;;;;-144.30;45.37;85581.31;5110091;28;20199;-54
2023/12/25 10:06:48;;;;;;;7.00;2.93;;;;;;;-144.30;46.46;85583.31;5109496;28;20659;-53
2023/12/25 10:09:16;;;;;;;5.63;2.90;;;;;;;-144.30;46.34;85635.00;5109203;28;20193;-54
2023/12/25 10:11:43;;;;;;;4.30;2.60;;;;;;;-144.30;45.04;85611.13;5109019;28;20211;-54
2023/12/25 10:14:11;;;;;;;4.70;2.67;;;;;;;-144.30;45.28;85573.38;5109271;28;20237;-58
2023/12/25 10:16:38;;;;;;;6.97;2.67;;;;;;;-144.30;44.71;85585.28;5108928;28;20191;-54
2023/12/25 10:19:05;;;;;;;2.93;2.70;;;;;;;-144.30;44.01;85557.47;5108965;28;20218;-59
2023/12/25 10:21:42;;;;;;;5.53;2.70;;;;;;;-144.30;43.58;85539.56;5109307;28;20194;-59
2023/12/25 10:24:12;;;;;;;5.37;2.57;;;;;;;-144.30;42.97;85535.59;5108998;28;20198;-52
2023/12/25 10:26:41;;;;;;;3.50;2.57;;;;;;;-144.30;42.57;85549.50;5108779;28;20576;-59
2023/12/25 10:29:09;;;;;;;5.63;2.80;;;;;;;-144.30;43.89;85571.38;5109191;28;20603;-59
2023/12/25 10:31:38;;;;;;;4.37;2.57;;;;;;;-144.30;43.59;85515.72;5108748;28;20255;-53
2023/12/25 10:34:05;;;;;;;5.07;2.60;;;;;;;-144.30;43.07;85547.53;5109444;28;20656;-53
2023/12/25 10:36:32;;;;;;;2.90;2.60;;;;;;;-144.30;42.44;85539.56;5109116;28;20191;-54
2023/12/25 10:38:59;;;;;;;4.83;2.70;;;;;;;-144.30;42.27;85489.88;5112163;28;20725;-53
2023/12/25 10:41:28;;;;;;;7.47;2.73;;;;;;;-144.30;42.73;85515.72;5112264;27;20237;-59
2023/12/25 10:43:57;;;;;;;8.97;3.07;;;;;;;-144.30;43.53;85505.78;5112903;28;20194;-60
2023/12/25 10:46:26;;;;;;;10.43;3.03;;;;;;;-144.30;42.65;85515.72;5113392;28;20596;-59
2023/12/25 10:48:55;;;;;;;3.43;2.13;;;;;;;-144.30;42.03;85420.28;5113363;28;20589;-59
2023/12/25 10:51:27;;;;;;;2.70;2.33;;;;;;;-144.30;42.31;85416.31;5112945;28;20264;-60
2023/12/25 10:53:58;;;;;;;4.97;2.60;;;;;;;-144.30;42.08;85523.66;5112969;28;20230;-61
2023/12/25 10:56:26;;;;;;;7.90;2.20;;;;;;;-144.30;42.08;85499.81;5112139;28;20199;-60
2023/12/25 10:58:53;;;;;;;4.67;2.60;;;;;;;-144.30;42.54;85495.84;5112651;28;20218;-53
2023/12/25 11:01:25;;;;;;;3.97;2.33;;;;;;;-144.30;42.70;85483.91;5112487;28;20205;-61
2023/12/25 11:03:52;;;;;;;3.83;2.30;;;;;;;-144.30;42.39;85481.91;5112927;28;20201;-60
2023/12/25 11:06:21;;;;;;;3.57;2.77;;;;;;;-144.30;42.54;85503.78;5112762;28;20205;-54
2023/12/25 11:08:48;;;;;;;4.10;2.37;;;;;;;-144.30;42.58;85464.03;5110236;28;20445;-61